Other Surface Observations
Issued by NWS Great Falls, MT

Home | Current Version | Previous Version | Text Only | Print | Product List | Glossary On
Versions: 1 2 3 4 5 6 7 8 9 10 11 12 13 14 15 16 17 18 19 20 21 22 23 24 25 26 27 28 29 30 31 32 33 34 35 36 37 38 39 40 41 42 43 44 45 46 47 48 49 50
274
SXUS55 KTFX 231702
OSOTFX

AREA AWOS OBSERVATIONS
NATIONAL WEATHER SERVICE GREAT FALLS MT
1102 AM MDT Wed Aug 23 2017

METAR K6S8 231655Z AUTO 16002KT 15SM 25/07 A3004 RMK A01 T02500072
METAR K7S0 231655Z AUTO 06000KT 15SM 24/11 A3009 RMK A01 T02440111
METAR K7S0 231555Z AUTO 06000KT 15SM 21/08 A3009 RMK A01 T02110077
METAR K97M 231555Z AUTO 05002KT 40SM 27/08 A3003 RMK A01 T02660077
METAR K9S5 231655Z AUTO 07000KT 15SM 22/04 A3011 RMK A01 T02220044
METAR KRPX 231555Z AUTO 18006KT 40SM 21/01 A2995 RMK A01 T02050005
METAR KTHM 231555Z AUTO 11003KT 40SM 19/06 A3008 RMK A01 T01880061



USA.gov is the U.S. government's official web portal to all federal, state and local government web resources and services.